3M2 weather

Double Springs/Winston County Airport
Double Springs, Alabama, United States

Public forecast

Using degrees Fahrenheit for public forecast. Weather courtesy of forecast.io.

Closest aviation weather report (METAR) to Double Springs/Winston County Airport

Closest report is Walker County Airport-Bevill Field, 14.6 nm (27.0 km) S. Retrieved 2019/10/13 21:35 UTC (10 minutes ago):

KJFX 132135Z AUTO 10SM -RA CLR 14/14 A3004 RMK AO2

Closest aviation forecast (TAF) to Double Springs/Winston County Airport

Closest forecast is Northwest Alabama Regional Airport, 38.7 nm (71.6 km) NNW. Retrieved 2019/10/13 18:42 UTC (3 hours ago):

TAF KMSL 131740Z 1318/1418 29005KT P6SM BKN120 FM140000 00000KT P6SM SKC